Terminal Aerodrome Forecast
Issued by NWS

Home | Current Version | Previous Version | Text Only | Print | Product List | Glossary On
Versions: 1 2 3 4 5 6 7 8 9 10 11 12 13 14 15 16 17 18 19 20 21 22 23 24 25 26 27 28 29 30 31 32 33 34 35 36 37 38 39 40
508
FTUS45 KGJT 221740
TAFTEX
TAF
KTEX 221740Z 2218/2318 13005KT P6SM BKN150
     FM222100 24008KT P6SM VCSH SCT060 OVC100
     FM230200 24007KT 3SM -SHSN BR OVC015
     FM230400 24007KT 1 1/2SM -SHSN BLSN OVC008 WS020/23030KT
     FM230600 22008KT 4SM -SHSN BLSN OVC015 WS020/22035KT
     FM230900 20013G35KT 3SM -SHSN OVC025 WS020/22040KT
     FM231000 21014G38KT 5SM -SHSN OVC015 WS020/22045KT
     FM231200 24018G28KT 5SM -SHSN BLSN OVC015 WS020/22045KT=

USA.gov is the U.S. government's official web portal to all federal, state and local government web resources and services.